createdAt,value
2023-05-08T03:58:49.137Z,14.50
2023-05-08T04:01:24.667Z,14.60
2023-05-08T04:04:31.558Z,14.60
2023-05-08T04:07:11.725Z,14.70
2023-05-08T04:09:59.407Z,14.80
2023-05-08T04:13:08.794Z,14.80
2023-05-08T04:16:01.005Z,14.90
2023-05-08T04:18:30.428Z,14.90
2023-05-08T04:21:03.298Z,14.80
2023-05-08T04:23:31.594Z,14.90
2023-05-08T04:26:01.660Z,14.80
2023-05-08T04:28:29.761Z,14.90
2023-05-08T04:30:57.710Z,14.90
2023-05-08T04:33:25.174Z,14.90
2023-05-08T04:35:52.760Z,14.90
2023-05-08T04:38:19.937Z,14.90
2023-05-08T04:40:47.148Z,15.00
2023-05-08T04:43:14.251Z,14.90
2023-05-08T04:45:41.532Z,14.90
2023-05-08T04:48:08.839Z,14.90
2023-05-08T04:50:35.967Z,14.90
2023-05-08T04:53:02.877Z,15.00
2023-05-08T04:55:30.265Z,15.00
2023-05-08T04:57:57.594Z,15.00
2023-05-08T05:00:24.423Z,15.10
2023-05-08T05:02:52.375Z,15.10
2023-05-08T05:05:19.521Z,15.00
2023-05-08T05:07:46.793Z,15.10
2023-05-08T05:10:15.134Z,15.10
2023-05-08T05:12:42.296Z,15.10
2023-05-08T05:15:10.392Z,15.10
2023-05-08T05:17:38.935Z,15.00
2023-05-08T05:20:08.774Z,15.00
2023-05-08T05:22:36.124Z,15.00
2023-05-08T05:25:03.930Z,15.00
2023-05-08T05:27:30.970Z,14.90
2023-05-08T05:30:01.376Z,14.90
2023-05-08T05:32:28.647Z,14.90
2023-05-08T05:34:56.611Z,14.90
2023-05-08T05:37:23.675Z,14.90
2023-05-08T05:39:51.732Z,15.00
2023-05-08T05:42:19.574Z,14.90
2023-05-08T05:44:46.848Z,15.00
2023-05-08T05:47:14.425Z,14.90
2023-05-08T05:49:46.857Z,14.90
2023-05-08T05:52:15.158Z,15.00
2023-05-08T05:54:42.677Z,15.10
2023-05-08T05:57:11.219Z,15.00
2023-05-08T05:59:38.511Z,15.00
2023-05-08T06:02:10.514Z,15.10
2023-05-08T06:04:41.554Z,15.10
2023-05-08T06:07:10.662Z,15.20
2023-05-08T06:09:37.725Z,15.20
2023-05-08T06:12:08.454Z,15.20
2023-05-08T06:14:35.838Z,15.20
2023-05-08T06:17:03.059Z,15.20
2023-05-08T06:19:31.272Z,15.20
2023-05-08T06:21:58.256Z,15.30
2023-05-08T06:24:25.456Z,15.20
2023-05-08T06:26:52.266Z,15.30
2023-05-08T06:29:19.103Z,15.40
2023-05-08T06:31:46.557Z,15.30
2023-05-08T06:34:13.783Z,15.40
2023-05-08T06:36:41.417Z,15.40
2023-05-08T06:39:08.604Z,15.50
2023-05-08T06:41:35.456Z,15.50
2023-05-08T06:44:02.321Z,15.60
2023-05-08T06:46:29.931Z,15.70
2023-05-08T06:48:57.150Z,15.80
2023-05-08T06:51:24.065Z,15.90
2023-05-08T06:53:51.063Z,15.90
2023-05-08T06:56:17.981Z,15.90
2023-05-08T06:58:48.389Z,15.90
2023-05-08T07:01:21.077Z,15.90
2023-05-08T07:03:48.160Z,15.90
2023-05-08T07:06:15.323Z,15.80
2023-05-08T07:08:42.505Z,15.90
2023-05-08T07:11:10.268Z,16.00
2023-05-08T07:13:37.332Z,15.90
2023-05-08T07:16:10.902Z,16.00
2023-05-08T07:18:38.510Z,16.00
2023-05-08T07:21:06.029Z,16.00
2023-05-08T07:23:36.985Z,16.00
2023-05-08T07:26:11.141Z,16.10
2023-05-08T07:28:42.327Z,16.10
2023-05-08T07:31:09.358Z,16.10
2023-05-08T07:33:36.563Z,16.20
2023-05-08T07:36:03.751Z,16.30
2023-05-08T07:38:31.039Z,16.20
2023-05-08T07:40:59.580Z,16.30
2023-05-08T07:43:26.673Z,16.30
2023-05-08T07:45:53.949Z,16.30
2023-05-08T07:48:21.179Z,16.30
2023-05-08T07:50:50.296Z,16.40
2023-05-08T07:53:17.630Z,16.40
2023-05-08T07:55:44.521Z,16.60
2023-05-08T07:58:11.515Z,16.80
2023-05-08T08:00:39.682Z,17.00
2023-05-08T08:03:07.340Z,17.20
2023-05-08T08:05:34.474Z,17.30
2023-05-08T08:08:01.520Z,17.40
2023-05-08T08:10:31.640Z,17.60
2023-05-08T08:13:06.829Z,17.70
2023-05-08T08:15:36.646Z,17.90
2023-05-08T08:18:03.575Z,18.00
2023-05-08T08:20:30.702Z,18.10
2023-05-08T08:22:58.154Z,18.20
2023-05-08T08:25:25.544Z,18.20
2023-05-08T08:27:54.892Z,18.20
2023-05-08T08:30:22.058Z,18.20
2023-05-08T08:32:49.399Z,18.30
2023-05-08T08:35:16.888Z,18.50
2023-05-08T08:37:44.646Z,18.60
2023-05-08T08:40:12.239Z,18.70
2023-05-08T08:42:39.465Z,18.60
2023-05-08T08:45:07.196Z,18.70
2023-05-08T08:47:38.061Z,18.70
2023-05-08T08:50:06.952Z,18.80
2023-05-08T08:53:00.541Z,18.80
2023-05-08T08:55:29.094Z,18.90
2023-05-08T08:57:59.073Z,18.80
2023-05-08T09:00:30.099Z,18.90
2023-05-08T09:02:57.561Z,18.90
2023-05-08T09:05:26.591Z,19.00
2023-05-08T09:07:57.535Z,19.10
2023-05-08T09:10:25.730Z,19.10
2023-05-08T09:13:06.076Z,19.20
2023-05-08T09:15:33.964Z,19.10
2023-05-08T09:18:04.341Z,19.10
2023-05-08T09:20:35.678Z,18.90
2023-05-08T09:23:03.682Z,18.90
2023-05-08T09:26:03.310Z,18.90
2023-05-08T09:28:30.424Z,19.00
2023-05-08T09:30:59.796Z,18.90
2023-05-08T09:33:29.784Z,19.00
2023-05-08T09:35:57.878Z,19.10
2023-05-08T09:38:37.739Z,19.20
2023-05-08T09:41:16.403Z,19.40
2023-05-08T09:43:44.924Z,19.50
2023-05-08T09:46:27.486Z,19.70
2023-05-08T09:49:00.303Z,19.60
2023-05-08T09:51:29.772Z,19.50
2023-05-08T09:53:59.157Z,19.40
2023-05-08T09:56:30.079Z,19.40
2023-05-08T09:58:57.097Z,19.40
2023-05-08T10:01:31.661Z,19.40
2023-05-08T10:03:59.456Z,19.60
2023-05-08T10:06:28.740Z,20.00
2023-05-08T10:09:17.471Z,20.20
2023-05-08T10:11:52.434Z,20.50
2023-05-08T10:14:23.138Z,20.60
2023-05-08T10:16:53.021Z,20.50
2023-05-08T10:19:25.220Z,20.60
2023-05-08T10:21:55.122Z,20.60
2023-05-08T10:24:27.036Z,20.80
2023-05-08T10:27:08.948Z,20.90
2023-05-08T10:29:51.164Z,20.80
2023-05-08T10:32:20.629Z,20.50
2023-05-08T10:34:53.127Z,20.60
2023-05-08T10:37:20.467Z,20.80
2023-05-08T10:39:48.614Z,20.90
2023-05-08T10:42:15.953Z,20.90
2023-05-08T10:44:44.746Z,20.90
2023-05-08T10:47:39.480Z,21.00
2023-05-08T10:50:34.273Z,20.90
2023-05-08T10:53:11.926Z,21.10
2023-05-08T10:55:42.481Z,21.30
2023-05-08T10:58:31.818Z,21.40
2023-05-08T11:01:07.428Z,21.40
2023-05-08T11:03:50.890Z,21.60
2023-05-08T11:06:39.067Z,21.60
2023-05-08T11:09:11.944Z,21.40
2023-05-08T11:11:39.510Z,21.40
2023-05-08T11:14:13.773Z,21.60
2023-05-08T11:17:04.962Z,21.70
2023-05-08T11:19:32.195Z,21.70
2023-05-08T11:22:11.739Z,21.70
2023-05-08T11:24:53.826Z,21.70
2023-05-08T11:27:33.771Z,21.80
2023-05-08T11:30:24.525Z,21.70
2023-05-08T11:33:04.028Z,21.80
2023-05-08T11:35:47.372Z,21.70
2023-05-08T11:38:21.826Z,21.60
2023-05-08T11:41:04.239Z,21.40
2023-05-08T11:43:44.259Z,21.60
2023-05-08T11:46:19.657Z,21.80
2023-05-08T11:48:51.453Z,22.10
2023-05-08T11:51:21.843Z,22.30
2023-05-08T11:53:49.062Z,22.10
2023-05-08T11:56:16.204Z,22.20
2023-05-08T11:58:43.676Z,22.30
2023-05-08T12:01:12.777Z,22.10
2023-05-08T12:03:40.122Z,22.10
2023-05-08T12:06:07.654Z,22.00
2023-05-08T12:08:39.410Z,21.80
2023-05-08T12:11:07.739Z,21.50
2023-05-08T12:13:34.887Z,21.40
2023-05-08T12:16:02.156Z,21.60
2023-05-08T12:18:30.858Z,22.10
2023-05-08T12:21:01.472Z,22.40
2023-05-08T12:23:31.062Z,22.50
2023-05-08T12:26:05.173Z,22.50
2023-05-08T12:28:35.074Z,22.40
2023-05-08T12:31:02.592Z,22.20
2023-05-08T12:33:31.800Z,22.10
2023-05-08T12:35:58.891Z,21.90
2023-05-08T12:38:29.825Z,21.70
2023-05-08T12:40:56.875Z,21.60
2023-05-08T12:43:37.722Z,21.70
2023-05-08T12:46:05.558Z,21.60
2023-05-08T12:48:32.652Z,21.80
2023-05-08T12:51:04.811Z,21.90
2023-05-08T12:53:33.140Z,22.10
2023-05-08T12:56:04.998Z,22.30
2023-05-08T12:58:34.709Z,22.70
2023-05-08T13:01:13.245Z,23.00
2023-05-08T13:03:41.316Z,23.00
2023-05-08T13:06:21.093Z,23.10
2023-05-08T13:08:55.189Z,23.20
2023-05-08T13:11:33.247Z,23.10
2023-05-08T13:14:00.692Z,23.00
2023-05-08T13:16:27.754Z,22.70
2023-05-08T13:18:58.081Z,22.80
2023-05-08T13:21:27.649Z,22.80
2023-05-08T13:23:56.582Z,23.00
2023-05-08T13:26:24.652Z,23.10
2023-05-08T13:28:52.970Z,23.00
2023-05-08T13:31:21.765Z,22.90
2023-05-08T13:33:51.808Z,22.90
2023-05-08T13:36:18.945Z,23.00
2023-05-08T13:38:49.097Z,23.20
2023-05-08T13:41:26.767Z,23.50
2023-05-08T13:43:53.765Z,23.50
2023-05-08T13:46:21.157Z,23.60
2023-05-08T13:48:48.256Z,23.50
2023-05-08T13:51:18.671Z,23.30
2023-05-08T13:53:45.760Z,23.20
2023-05-08T13:56:18.153Z,23.10
2023-05-08T13:58:45.182Z,23.00
2023-05-08T14:01:25.728Z,22.70
2023-05-08T14:03:54.862Z,22.40
2023-05-08T14:06:22.746Z,22.40
2023-05-08T14:08:52.787Z,22.20
2023-05-08T14:11:22.337Z,22.20
2023-05-08T14:13:49.544Z,22.30
2023-05-08T14:16:16.675Z,22.30
2023-05-08T14:18:44.040Z,22.40
2023-05-08T14:21:11.002Z,22.40
2023-05-08T14:23:38.815Z,22.30
2023-05-08T14:26:05.972Z,22.20
2023-05-08T14:28:33.266Z,22.10
2023-05-08T14:31:03.837Z,22.00
2023-05-08T14:33:31.076Z,22.00
2023-05-08T14:35:58.071Z,22.10
2023-05-08T14:38:25.395Z,22.20
2023-05-08T14:40:54.415Z,22.30
2023-05-08T14:43:22.352Z,22.40
2023-05-08T14:45:49.860Z,22.80
2023-05-08T14:48:16.937Z,23.20
2023-05-08T14:50:44.049Z,23.20
2023-05-08T14:53:11.366Z,23.20
2023-05-08T14:55:38.822Z,22.80
2023-05-08T14:58:06.642Z,22.40
2023-05-08T15:00:33.762Z,21.90
2023-05-08T15:03:01.117Z,21.70
2023-05-08T15:05:28.520Z,21.20
2023-05-08T15:07:55.603Z,21.10
2023-05-08T15:10:22.817Z,20.90
2023-05-08T15:12:50.467Z,20.90
2023-05-08T15:15:17.676Z,21.00
2023-05-08T15:17:44.851Z,21.30
2023-05-08T15:20:12.090Z,21.30
2023-05-08T15:22:41.626Z,21.40
2023-05-08T15:25:08.924Z,21.30
2023-05-08T15:27:36.353Z,21.30
2023-05-08T15:30:04.704Z,21.10
2023-05-08T15:32:32.975Z,21.00
2023-05-08T15:34:59.938Z,21.00
2023-05-08T15:37:27.476Z,20.90
2023-05-08T15:39:54.347Z,20.90
2023-05-08T15:42:21.368Z,20.90
2023-05-08T15:47:19.464Z,20.80
2023-05-08T15:49:49.252Z,20.80
2023-05-08T15:52:19.737Z,20.70
2023-05-08T15:54:47.556Z,20.50
2023-05-08T15:57:14.821Z,20.60
2023-05-08T15:59:41.901Z,20.60
2023-05-08T16:02:10.347Z,20.70
2023-05-08T16:04:37.463Z,20.60
2023-05-08T16:07:09.927Z,20.60
2023-05-08T16:09:37.058Z,20.60
2023-05-08T16:12:05.765Z,20.80
2023-05-08T16:14:36.830Z,20.90
2023-05-08T16:17:09.326Z,21.10
2023-05-08T16:19:40.871Z,21.10
2023-05-08T16:22:08.014Z,21.30
2023-05-08T16:24:34.871Z,21.30
2023-05-08T16:27:01.902Z,21.40
2023-05-08T16:29:28.726Z,21.40
2023-05-08T16:31:56.376Z,21.30
2023-05-08T16:34:23.284Z,21.10
2023-05-08T16:36:50.485Z,20.80
2023-05-08T16:39:17.529Z,20.70
2023-05-08T16:41:44.704Z,20.60
2023-05-08T16:44:12.509Z,20.50
2023-05-08T16:46:39.499Z,20.40
2023-05-08T16:49:06.544Z,20.30
2023-05-08T16:51:33.407Z,20.20
2023-05-08T16:54:00.631Z,20.10
2023-05-08T16:56:27.469Z,19.90
2023-05-08T16:58:54.412Z,19.80
2023-05-08T17:01:21.529Z,19.70
2023-05-08T17:03:48.500Z,19.60
2023-05-08T17:06:15.356Z,19.60
2023-05-08T17:08:42.375Z,19.70
2023-05-08T17:11:09.177Z,19.90
2023-05-08T17:13:36.081Z,20.00
2023-05-08T17:16:05.302Z,20.00
2023-05-08T17:18:32.438Z,20.00
2023-05-08T17:20:59.306Z,20.00
2023-05-08T17:23:26.149Z,19.90
2023-05-08T17:26:00.226Z,19.80
2023-05-08T17:28:27.184Z,19.70
2023-05-08T17:30:54.386Z,19.60
2023-05-08T17:33:21.219Z,19.40
2023-05-08T17:35:48.204Z,19.30
2023-05-08T17:38:15.034Z,19.30
2023-05-08T17:40:41.914Z,19.30
2023-05-08T17:43:08.817Z,19.30
2023-05-08T17:45:35.635Z,19.30
2023-05-08T17:48:04.431Z,19.30
2023-05-08T17:50:31.340Z,19.20
2023-05-08T17:52:58.220Z,19.20
2023-05-08T17:55:25.197Z,19.20
2023-05-08T17:57:53.383Z,19.10
2023-05-08T18:00:20.325Z,19.00
2023-05-08T18:02:47.203Z,19.10
2023-05-08T18:05:15.826Z,19.00
2023-05-08T18:07:46.720Z,18.80
2023-05-08T18:10:13.824Z,18.70
2023-05-08T18:12:40.886Z,18.70
2023-05-08T18:15:08.323Z,18.60
2023-05-08T18:17:35.266Z,18.60
2023-05-08T18:20:07.592Z,18.60
2023-05-08T18:22:35.056Z,18.60
2023-05-08T18:25:02.112Z,18.50
2023-05-08T18:27:29.125Z,18.50
2023-05-08T18:29:55.973Z,18.40
2023-05-08T18:32:23.049Z,18.40
2023-05-08T18:34:49.995Z,18.30
2023-05-08T18:37:16.937Z,18.20
2023-05-08T18:39:43.783Z,18.20
2023-05-08T18:42:11.365Z,18.10
2023-05-08T18:44:38.170Z,18.00
2023-05-08T18:47:05.557Z,18.10
2023-05-08T18:49:32.826Z,18.00
2023-05-08T18:51:59.752Z,18.00
2023-05-08T18:54:26.974Z,17.80
2023-05-08T18:56:54.428Z,17.80
2023-05-08T18:59:21.905Z,17.70
2023-05-08T19:01:50.604Z,17.60
2023-05-08T19:04:18.128Z,17.60
2023-05-08T19:06:45.194Z,17.60
2023-05-08T19:09:12.034Z,17.60
2023-05-08T19:11:38.881Z,17.60
2023-05-08T19:14:05.777Z,17.60
2023-05-08T19:16:32.825Z,17.50
2023-05-08T19:18:59.716Z,17.50
2023-05-08T19:21:26.520Z,17.50
2023-05-08T19:23:53.270Z,17.40
2023-05-08T19:26:21.700Z,17.40
2023-05-08T19:28:48.514Z,17.30
2023-05-08T19:31:15.338Z,17.20
2023-05-08T19:33:42.306Z,17.10
2023-05-08T19:36:09.149Z,17.00
2023-05-08T19:38:37.491Z,17.00
2023-05-08T19:41:04.259Z,17.00
2023-05-08T19:43:31.157Z,17.00
2023-05-08T19:45:57.970Z,16.90
2023-05-08T19:48:24.926Z,16.90
2023-05-08T19:50:54.610Z,16.90
2023-05-08T19:53:22.751Z,16.90
2023-05-08T19:55:49.524Z,16.90
2023-05-08T19:58:17.424Z,16.90
2023-05-08T20:00:50.931Z,16.90
2023-05-08T20:03:18.215Z,16.80
2023-05-08T20:05:45.087Z,16.80
2023-05-08T20:08:11.986Z,16.80
2023-05-08T20:10:38.803Z,16.80
2023-05-08T20:13:05.882Z,16.80
2023-05-08T20:15:32.740Z,16.70
2023-05-08T20:17:59.777Z,16.70
2023-05-08T20:20:29.247Z,16.80
2023-05-08T20:22:56.412Z,16.70
2023-05-08T20:25:23.355Z,16.70
2023-05-08T20:27:50.118Z,16.70
2023-05-08T20:30:17.037Z,16.70
2023-05-08T20:32:43.952Z,16.70
2023-05-08T20:35:10.929Z,16.60
2023-05-08T20:37:48.153Z,16.60
2023-05-08T20:40:15.561Z,16.60
2023-05-08T20:42:42.588Z,16.60
2023-05-08T20:45:10.530Z,16.60
2023-05-08T20:47:37.476Z,16.60
2023-05-08T20:50:04.866Z,16.60
2023-05-08T20:52:32.295Z,16.50
2023-05-08T20:54:59.533Z,16.60
2023-05-08T20:57:26.838Z,16.60
2023-05-08T20:59:53.991Z,16.60
2023-05-08T21:02:21.158Z,16.60
2023-05-08T21:04:48.076Z,16.50
2023-05-08T21:07:14.966Z,16.40
2023-05-08T21:09:41.834Z,16.40
2023-05-08T21:12:09.780Z,16.30
2023-05-08T21:14:37.317Z,16.40
2023-05-08T21:17:04.284Z,16.40
2023-05-08T21:19:32.041Z,16.40
2023-05-08T21:21:58.909Z,16.30
2023-05-08T21:24:26.779Z,16.30
2023-05-08T21:26:53.864Z,16.30
2023-05-08T21:29:20.913Z,16.30
2023-05-08T21:31:47.714Z,16.30
2023-05-08T21:34:15.311Z,16.20
2023-05-08T21:36:42.237Z,16.30
2023-05-08T21:39:09.354Z,16.20
2023-05-08T21:41:36.220Z,16.20
2023-05-08T21:44:03.065Z,16.20
2023-05-08T21:46:29.983Z,16.20
2023-05-08T21:48:56.862Z,16.20
2023-05-08T21:51:23.720Z,16.20
2023-05-08T21:53:51.015Z,16.20
2023-05-08T21:56:17.908Z,16.20
2023-05-08T21:58:44.744Z,16.10
2023-05-08T22:01:12.126Z,16.20
2023-05-08T22:03:39.073Z,16.10
2023-05-08T22:06:06.284Z,16.10
2023-05-08T22:08:33.191Z,16.10
2023-05-08T22:11:00.032Z,16.00
2023-05-08T22:13:27.185Z,16.00
2023-05-08T22:15:54.206Z,16.00
2023-05-08T22:18:21.174Z,16.00
2023-05-08T22:20:48.063Z,16.00
2023-05-08T22:23:14.971Z,15.90
2023-05-08T22:25:41.903Z,16.00
2023-05-08T22:28:12.039Z,16.00
2023-05-08T22:30:38.857Z,15.90
2023-05-08T22:33:06.041Z,15.90
2023-05-08T22:35:39.156Z,15.90
2023-05-08T22:38:06.004Z,15.90
2023-05-08T22:40:33.527Z,15.90
2023-05-08T22:43:00.609Z,15.90
2023-05-08T22:45:27.937Z,15.90
2023-05-08T22:47:55.225Z,15.90
2023-05-08T22:50:22.138Z,15.90
2023-05-08T22:52:49.028Z,15.90
2023-05-08T22:55:16.581Z,15.90
2023-05-08T22:57:43.788Z,15.90
2023-05-08T23:00:11.416Z,15.80
2023-05-08T23:02:38.337Z,15.90
2023-05-08T23:05:06.719Z,15.90
2023-05-08T23:07:33.504Z,15.80
2023-05-08T23:10:00.315Z,15.80
2023-05-08T23:12:27.091Z,15.80
2023-05-08T23:14:53.995Z,15.80
2023-05-08T23:17:20.788Z,15.80
2023-05-08T23:19:47.739Z,15.80
2023-05-08T23:22:14.579Z,15.90
2023-05-08T23:24:41.409Z,15.80
2023-05-08T23:27:08.266Z,15.80
2023-05-08T23:29:35.002Z,15.80
2023-05-08T23:32:01.779Z,15.80
2023-05-08T23:34:28.586Z,15.80
2023-05-08T23:36:55.623Z,15.80
2023-05-08T23:39:22.556Z,15.80
2023-05-08T23:41:49.475Z,15.70
2023-05-08T23:44:17.381Z,15.60
2023-05-08T23:46:44.387Z,15.70
2023-05-08T23:49:11.378Z,15.60
2023-05-08T23:51:38.179Z,15.60
2023-05-08T23:54:05.637Z,15.50
2023-05-08T23:56:32.902Z,15.50
2023-05-08T23:58:59.635Z,15.40
